createdAt,value
2017-11-19T00:01:37.743Z,99939
2017-11-19T00:04:07.645Z,99962
2017-11-19T00:06:37.642Z,99959
2017-11-19T00:09:07.574Z,99957
2017-11-19T00:11:37.475Z,99954
2017-11-19T00:14:07.330Z,99934
2017-11-19T00:16:37.298Z,99933
2017-11-19T00:19:07.210Z,99942
2017-11-19T00:21:37.158Z,99929
2017-11-19T00:24:07.108Z,99946
2017-11-19T00:26:37.016Z,99946
2017-11-19T00:29:06.935Z,99937
2017-11-19T00:31:36.816Z,99948
2017-11-19T00:34:06.774Z,99939
2017-11-19T00:36:36.652Z,99937
2017-11-19T00:39:06.550Z,99935
2017-11-19T00:41:36.423Z,99945
2017-11-19T00:44:06.352Z,99926
2017-11-19T00:46:36.289Z,99916
2017-11-19T00:49:06.177Z,99910
2017-11-19T00:51:36.075Z,99905
2017-11-19T00:54:05.956Z,99913
2017-11-19T00:56:35.845Z,99927
2017-11-19T00:59:05.728Z,99905
2017-11-19T01:01:35.627Z,99910
2017-11-19T01:04:05.504Z,99917
2017-11-19T01:06:35.418Z,99922
2017-11-19T01:09:05.307Z,99923
2017-11-19T01:11:35.180Z,99920
2017-11-19T01:14:05.074Z,99899
2017-11-19T01:16:34.970Z,99889
2017-11-19T01:19:04.879Z,99898
2017-11-19T01:21:34.841Z,99881
2017-11-19T01:24:04.844Z,99887
2017-11-19T01:26:34.728Z,99881
2017-11-19T01:29:04.636Z,99882
2017-11-19T01:31:34.539Z,99879
2017-11-19T01:34:05.676Z,99878
2017-11-19T01:36:35.559Z,99870
2017-11-19T01:39:05.451Z,99862
2017-11-19T01:41:35.364Z,99853
2017-11-19T01:44:05.240Z,99861
2017-11-19T01:49:11.464Z,99864
2017-11-19T01:51:41.399Z,99867
2017-11-19T01:54:11.258Z,99861
2017-11-19T01:56:41.198Z,99867
2017-11-19T01:59:11.088Z,99849
2017-11-19T02:01:41.002Z,99846
2017-11-19T02:04:10.894Z,99829
2017-11-19T02:06:40.824Z,99807
2017-11-19T02:09:10.729Z,99823
2017-11-19T02:11:40.632Z,99823
2017-11-19T02:14:10.610Z,99821
2017-11-19T02:16:40.509Z,99826
2017-11-19T02:19:10.392Z,99831
2017-11-19T02:21:40.276Z,99829
2017-11-19T02:24:10.202Z,99841
2017-11-19T02:26:40.055Z,99867
2017-11-19T02:29:09.947Z,99860
2017-11-19T02:31:39.851Z,99841
2017-11-19T02:34:09.794Z,99833
2017-11-19T02:36:39.675Z,99831
2017-11-19T02:39:09.561Z,99830
2017-11-19T02:41:39.489Z,99830
2017-11-19T02:44:09.385Z,99812
2017-11-19T02:46:39.369Z,99829
2017-11-19T02:49:09.232Z,99818
2017-11-19T02:51:39.155Z,99846
2017-11-19T02:54:09.033Z,99844
2017-11-19T02:56:38.927Z,99828
2017-11-19T02:59:08.807Z,99835
2017-11-19T03:01:38.729Z,99806
2017-11-19T03:04:08.620Z,99813
2017-11-19T03:06:38.535Z,99807
2017-11-19T03:09:08.447Z,99809
2017-11-19T03:11:38.352Z,99819
2017-11-19T03:14:08.232Z,99807
2017-11-19T03:16:38.105Z,99806
2017-11-19T03:19:08.076Z,99788
2017-11-19T03:21:37.954Z,99790
2017-11-19T03:24:07.862Z,99791
2017-11-19T03:26:37.762Z,99799
2017-11-19T03:29:07.652Z,99787
2017-11-19T03:31:37.529Z,99784
2017-11-19T03:34:07.420Z,99787
2017-11-19T03:36:37.459Z,99758
2017-11-19T03:39:07.348Z,99744
2017-11-19T03:41:37.296Z,99738
2017-11-19T03:44:07.304Z,99740
2017-11-19T03:46:37.232Z,99753
2017-11-19T03:49:07.087Z,99752
2017-11-19T03:51:37.003Z,99757
2017-11-19T03:54:06.886Z,99749
2017-11-19T03:56:36.816Z,99751
2017-11-19T03:59:06.743Z,99743
2017-11-19T04:01:36.777Z,99743
2017-11-19T04:04:06.658Z,99762
2017-11-19T04:06:36.540Z,99750
2017-11-19T04:09:06.454Z,99761
2017-11-19T04:14:12.657Z,99753
2017-11-19T04:16:42.542Z,99755
2017-11-19T04:19:12.446Z,99753
2017-11-19T04:21:42.332Z,99749
2017-11-19T04:24:12.227Z,99752
2017-11-19T04:26:42.140Z,99758
2017-11-19T04:29:12.250Z,99769
2017-11-19T04:31:42.138Z,99753
2017-11-19T04:34:12.011Z,99754
2017-11-19T04:36:41.918Z,99744
2017-11-19T04:39:11.791Z,99731
2017-11-19T04:41:41.701Z,99713
2017-11-19T04:44:11.623Z,99713
2017-11-19T04:46:41.517Z,99713
2017-11-19T04:49:11.391Z,99701
2017-11-19T04:51:41.281Z,99718
2017-11-19T04:54:11.175Z,99720
2017-11-19T04:56:41.048Z,99713
2017-11-19T04:59:10.963Z,99706
2017-11-19T05:01:40.826Z,99713
2017-11-19T05:04:10.742Z,99714
2017-11-19T05:06:40.625Z,99690
2017-11-19T05:09:10.517Z,99695
2017-11-19T05:11:40.386Z,99684
2017-11-19T05:14:10.331Z,99681
2017-11-19T05:16:40.252Z,99682
2017-11-19T05:19:10.132Z,99703
2017-11-19T05:21:40.038Z,99693
2017-11-19T05:24:10.097Z,99679
2017-11-19T05:26:39.994Z,99687
2017-11-19T05:29:09.873Z,99693
2017-11-19T05:31:39.789Z,99686
2017-11-19T05:34:09.666Z,99691
2017-11-19T05:36:39.551Z,99700
2017-11-19T05:39:09.418Z,99692
2017-11-19T05:41:39.284Z,99687
2017-11-19T05:44:09.182Z,99673
2017-11-19T05:46:39.056Z,99675
2017-11-19T05:49:08.972Z,99664
2017-11-19T05:51:38.869Z,99665
2017-11-19T05:54:08.776Z,99661
2017-11-19T05:56:38.643Z,99659
2017-11-19T05:59:08.539Z,99664
2017-11-19T06:01:38.409Z,99657
2017-11-19T06:04:08.404Z,99667
2017-11-19T06:06:38.313Z,99662
2017-11-19T06:09:08.174Z,99669
2017-11-19T06:11:38.133Z,99677
2017-11-19T06:14:08.022Z,99665
2017-11-19T06:16:37.925Z,99669
2017-11-19T06:19:07.804Z,99682
2017-11-19T06:21:37.837Z,99659
2017-11-19T06:24:07.728Z,99665
2017-11-19T06:26:37.630Z,99673
2017-11-19T06:29:07.516Z,99676
2017-11-19T06:31:37.403Z,99666
2017-11-19T06:34:07.265Z,99660
2017-11-19T06:36:37.188Z,99661
2017-11-19T06:39:07.100Z,99668
2017-11-19T06:41:37.011Z,99676
2017-11-19T06:44:06.900Z,99682
2017-11-19T06:46:36.784Z,99670
2017-11-19T06:49:06.687Z,99678
2017-11-19T06:51:36.563Z,99684
2017-11-19T06:54:06.455Z,99658
2017-11-19T06:56:36.330Z,99670
2017-11-19T06:59:06.203Z,99679
2017-11-19T07:01:36.294Z,99664
2017-11-19T07:04:06.376Z,99673
2017-11-19T07:06:36.268Z,99662
2017-11-19T07:09:06.154Z,99661
2017-11-19T07:11:36.036Z,99659
2017-11-19T07:14:05.923Z,99664
2017-11-19T07:16:35.818Z,99671
2017-11-19T07:19:05.731Z,99669
2017-11-19T07:21:35.627Z,99664
2017-11-19T07:24:05.489Z,99669
2017-11-19T07:26:35.382Z,99657
2017-11-19T07:29:05.260Z,99660
2017-11-19T07:31:35.149Z,99665
2017-11-19T07:34:05.084Z,99691
2017-11-19T07:36:34.945Z,99687
2017-11-19T07:39:04.843Z,99682
2017-11-19T07:41:34.740Z,99666
2017-11-19T07:44:04.703Z,99660
2017-11-19T07:46:34.699Z,99666
2017-11-19T07:49:04.615Z,99666
2017-11-19T07:51:34.497Z,99675
2017-11-19T07:54:04.435Z,99672
2017-11-19T07:56:34.297Z,99676
2017-11-19T07:59:04.268Z,99690
2017-11-19T08:01:34.196Z,99686
2017-11-19T08:04:04.088Z,99710
2017-11-19T08:06:34.019Z,99704
2017-11-19T08:09:03.922Z,99706
2017-11-19T08:11:33.959Z,99694
2017-11-19T08:14:03.855Z,99713
2017-11-19T08:16:33.767Z,99686
2017-11-19T08:19:03.684Z,99692
2017-11-19T08:21:33.594Z,99693
2017-11-19T08:24:03.482Z,99702
2017-11-19T08:26:33.420Z,99713
2017-11-19T08:29:03.325Z,99706
2017-11-19T08:31:33.218Z,99693
2017-11-19T08:34:03.148Z,99681
2017-11-19T08:36:33.024Z,99690
2017-11-19T08:39:02.872Z,99682
2017-11-19T08:41:32.736Z,99684
2017-11-19T08:44:02.641Z,99688
2017-11-19T08:46:32.635Z,99691
2017-11-19T08:49:02.545Z,99692
2017-11-19T08:51:32.436Z,99699
2017-11-19T08:54:02.383Z,99699
2017-11-19T08:56:32.278Z,99693
2017-11-19T08:59:02.172Z,99694
2017-11-19T09:01:32.101Z,99700
2017-11-19T09:04:02.054Z,99697
2017-11-19T09:06:31.952Z,99701
2017-11-19T09:09:01.832Z,99676
2017-11-19T09:11:31.734Z,99686
2017-11-19T09:14:01.617Z,99699
2017-11-19T09:16:31.525Z,99697
2017-11-19T09:19:01.406Z,99705
2017-11-19T09:21:31.282Z,99714
2017-11-19T09:24:01.188Z,99708
2017-11-19T09:26:31.092Z,99724
2017-11-19T09:29:01.048Z,99728
2017-11-19T09:31:30.934Z,99726
2017-11-19T09:34:00.817Z,99731
2017-11-19T09:36:30.793Z,99726
2017-11-19T09:39:00.707Z,99724
2017-11-19T09:41:30.671Z,99719
2017-11-19T09:44:00.571Z,99724
2017-11-19T09:46:30.467Z,99727
2017-11-19T09:49:00.408Z,99727
2017-11-19T09:51:30.382Z,99733
2017-11-19T09:54:00.284Z,99737
2017-11-19T09:56:30.292Z,99743
2017-11-19T09:59:00.167Z,99747
2017-11-19T10:01:30.078Z,99751
2017-11-19T10:03:59.960Z,99743
2017-11-19T10:06:29.884Z,99750
2017-11-19T10:08:59.786Z,99744
2017-11-19T10:11:29.723Z,99745
2017-11-19T10:16:35.820Z,99747
2017-11-19T10:19:05.700Z,99759
2017-11-19T10:21:35.609Z,99747
2017-11-19T10:24:05.479Z,99749
2017-11-19T10:26:35.469Z,99756
2017-11-19T10:29:05.355Z,99768
2017-11-19T10:31:35.254Z,99766
2017-11-19T10:34:05.308Z,99771
2017-11-19T10:36:35.196Z,99763
2017-11-19T10:39:05.128Z,99586
2017-11-19T10:41:35.027Z,99771
2017-11-19T10:44:04.907Z,99779
2017-11-19T10:46:34.799Z,99778
2017-11-19T10:49:04.719Z,99780
2017-11-19T10:51:34.727Z,99782
2017-11-19T10:54:04.667Z,99784
2017-11-19T11:02:37.330Z,99799
2017-11-19T11:05:24.678Z,99813
2017-11-19T11:24:07.353Z,99818
2017-11-19T11:26:37.340Z,99822
2017-11-19T11:29:08.477Z,99830
2017-11-19T11:31:38.539Z,99828
2017-11-19T11:34:08.488Z,99820
2017-11-19T11:36:38.405Z,99824
2017-11-19T11:39:08.523Z,99833
2017-11-19T11:46:20.569Z,99835
2017-11-19T12:27:37.875Z,99872
2017-11-19T12:30:10.728Z,99878
2017-11-19T12:35:38.308Z,99892
2017-11-19T12:38:16.198Z,99886
2017-11-19T12:40:54.419Z,99891
2017-11-19T12:43:24.363Z,99890
2017-11-19T12:45:54.249Z,99882
2017-11-19T12:48:24.173Z,99890
2017-11-19T12:50:54.117Z,99890
2017-11-19T12:53:24.016Z,99893
2017-11-19T12:55:53.920Z,99652
2017-11-19T12:58:23.865Z,99897
2017-11-19T13:00:53.761Z,99914
2017-11-19T13:16:18.709Z,99890
2017-11-19T13:18:48.584Z,99881
2017-11-19T13:21:18.900Z,99900
2017-11-19T13:23:48.797Z,99896
2017-11-19T13:26:18.708Z,99902
2017-11-19T13:28:48.626Z,99903
2017-11-19T13:31:23.070Z,99909
2017-11-19T13:36:55.341Z,99901
2017-11-19T13:39:26.033Z,99903
2017-11-19T13:41:57.541Z,99896
2017-11-19T13:44:27.586Z,99912
2017-11-19T13:46:58.741Z,99909
2017-11-19T13:49:30.460Z,99912
2017-11-19T13:52:00.455Z,99911
2017-11-19T13:54:30.337Z,99914
2017-11-19T13:57:00.268Z,99920
2017-11-19T13:59:30.177Z,99923
2017-11-19T14:02:00.095Z,99934
2017-11-19T14:04:29.974Z,99940
2017-11-19T14:06:59.921Z,99943
2017-11-19T14:09:29.926Z,99940
2017-11-19T14:11:59.850Z,99944
2017-11-19T14:14:29.698Z,99942
2017-11-19T14:16:59.691Z,99939
2017-11-19T14:19:29.598Z,99947
2017-11-19T14:21:59.494Z,99930
2017-11-19T14:24:29.434Z,99934
2017-11-19T14:26:59.448Z,99943
2017-11-19T14:29:29.373Z,99940
2017-11-19T14:31:59.279Z,99950
2017-11-19T14:34:29.181Z,99944
2017-11-19T14:36:59.099Z,99969
2017-11-19T14:39:28.999Z,99946
2017-11-19T14:41:58.912Z,99950
2017-11-19T14:44:28.874Z,99942
2017-11-19T14:46:58.763Z,99942
2017-11-19T14:49:28.691Z,99957
2017-11-19T14:51:58.590Z,99954
2017-11-19T14:54:28.518Z,99958
2017-11-19T14:56:58.394Z,99956
2017-11-19T14:59:28.307Z,99963
2017-11-19T15:01:58.280Z,99966
2017-11-19T15:04:28.224Z,99973
2017-11-19T15:06:58.115Z,99967
2017-11-19T15:09:27.992Z,99966
2017-11-19T15:12:04.863Z,99968
2017-11-19T15:14:34.749Z,99976
2017-11-19T15:17:04.624Z,99971
2017-11-19T15:19:34.541Z,99969
2017-11-19T15:22:04.460Z,99972
2017-11-19T15:24:34.360Z,99969
2017-11-19T15:27:04.326Z,99976
2017-11-19T15:29:34.264Z,99972
2017-11-19T15:32:04.184Z,99983
2017-11-19T15:34:34.122Z,99982
2017-11-19T15:37:04.005Z,99993
2017-11-19T15:39:33.917Z,99990
2017-11-19T15:42:03.792Z,100004
2017-11-19T15:44:33.720Z,100008
2017-11-19T15:47:03.611Z,100013
2017-11-19T15:49:33.483Z,100016
2017-11-19T15:52:03.395Z,100015
2017-11-19T15:54:33.263Z,100018
2017-11-19T15:57:03.514Z,100018
2017-11-19T15:59:33.359Z,100022
2017-11-19T16:02:03.531Z,100025
2017-11-19T16:04:33.432Z,100036
2017-11-19T16:07:03.366Z,100028
2017-11-19T16:09:33.208Z,100023
2017-11-19T16:12:03.353Z,100030
2017-11-19T16:14:33.302Z,100038
2017-11-19T16:17:03.528Z,100041
2017-11-19T16:19:33.454Z,100044
2017-11-19T16:22:03.631Z,100043
2017-11-19T16:24:33.541Z,100056
2017-11-19T16:27:03.479Z,100049
2017-11-19T16:29:33.357Z,100062
2017-11-19T16:32:10.304Z,100057
2017-11-19T16:34:40.204Z,100067
2017-11-19T16:37:10.096Z,100056
2017-11-19T16:39:39.995Z,100063
2017-11-19T16:42:09.889Z,100066
2017-11-19T16:44:39.885Z,100076
2017-11-19T16:47:09.779Z,100082
2017-11-19T16:49:39.980Z,100078
2017-11-19T16:52:09.853Z,100086
2017-11-19T16:54:39.786Z,100089
2017-11-19T16:57:09.703Z,100093
2017-11-19T16:59:39.598Z,100107
2017-11-19T17:02:09.518Z,100110
2017-11-19T17:04:39.419Z,100124
2017-11-19T17:07:09.296Z,100123
2017-11-19T17:09:39.180Z,100128
2017-11-19T17:12:09.091Z,100138
2017-11-19T17:14:38.945Z,100137
2017-11-19T17:17:09.167Z,100137
2017-11-19T17:19:39.087Z,100147
2017-11-19T17:22:09.256Z,100152
2017-11-19T17:24:39.139Z,100147
2017-11-19T17:27:09.315Z,100152
2017-11-19T17:29:39.203Z,100153
2017-11-19T17:32:09.164Z,100163
2017-11-19T17:34:39.041Z,100168
2017-11-19T17:37:08.954Z,100172
2017-11-19T17:39:38.923Z,100173
2017-11-19T17:42:09.098Z,100171
2017-11-19T17:44:38.984Z,100180
2017-11-19T17:47:09.181Z,100196
2017-11-19T17:55:57.191Z,100215
2017-11-19T17:58:27.076Z,100218
2017-11-19T18:00:56.972Z,100221
2017-11-19T18:03:27.123Z,100216
2017-11-19T18:05:57.009Z,100226
2017-11-19T18:08:27.192Z,100233
2017-11-19T18:13:53.279Z,100235
2017-11-19T18:16:23.224Z,100239
2017-11-19T18:18:53.543Z,100245
2017-11-19T18:21:23.538Z,100250
2017-11-19T18:23:53.752Z,100247
2017-11-19T18:26:23.642Z,100251
2017-11-19T18:28:53.535Z,100259
2017-11-19T18:31:23.513Z,100264
2017-11-19T18:33:53.400Z,100268
2017-11-19T18:36:23.630Z,100262
2017-11-19T18:38:53.530Z,100268
2017-11-19T18:41:37.194Z,100284
2017-11-19T18:49:53.618Z,100294
2017-11-19T19:02:08.069Z,100335
2017-11-19T19:04:38.943Z,100336
2017-11-19T19:07:08.916Z,100337
2017-11-19T19:09:38.859Z,100336
2017-11-19T19:12:09.081Z,100350
2017-11-19T19:14:40.051Z,100355
2017-11-19T19:17:10.296Z,100343
2017-11-19T19:19:40.870Z,100358
2017-11-19T19:22:11.046Z,100362
2017-11-19T19:24:41.020Z,100365
2017-11-19T19:27:11.208Z,100369
2017-11-19T19:29:41.111Z,100375
2017-11-19T19:32:11.293Z,100381
2017-11-19T19:34:41.181Z,100389
2017-11-19T19:37:11.364Z,100392
2017-11-19T19:39:41.291Z,100398
2017-11-19T19:42:11.468Z,100397
2017-11-19T19:44:41.357Z,100405
2017-11-19T19:47:11.535Z,100402
2017-11-19T19:49:41.442Z,100416
2017-11-19T19:52:11.632Z,100412
2017-11-19T19:54:41.531Z,100415
2017-11-19T19:57:11.452Z,100416
2017-11-19T19:59:41.385Z,100422
2017-11-19T20:02:11.339Z,100424
2017-11-19T20:04:41.390Z,100429
2017-11-19T20:07:11.333Z,100439
2017-11-19T20:09:41.251Z,100444
2017-11-19T20:12:11.172Z,100457
2017-11-19T20:14:41.231Z,100465
2017-11-19T20:17:11.157Z,100468
2017-11-19T20:19:42.312Z,100466
2017-11-19T20:22:12.164Z,100474
2017-11-19T20:24:42.397Z,100476
2017-11-19T20:27:12.298Z,100478
2017-11-19T20:29:42.478Z,100482
2017-11-19T20:32:12.406Z,100481
2017-11-19T20:34:42.565Z,100490
2017-11-19T20:37:12.471Z,100484
2017-11-19T20:39:42.615Z,100491
2017-11-19T20:42:12.528Z,100492
2017-11-19T20:44:42.445Z,100493
2017-11-19T20:47:12.451Z,100497
2017-11-19T20:49:42.412Z,100496
2017-11-19T20:52:12.318Z,100493
2017-11-19T20:54:42.227Z,100493
2017-11-19T20:57:12.157Z,100495
2017-11-19T20:59:42.055Z,100504
2017-11-19T21:02:12.155Z,100502
2017-11-19T21:04:42.031Z,100502
2017-11-19T21:07:11.972Z,100499
2017-11-19T21:09:42.057Z,100512
2017-11-19T21:12:12.023Z,100512
2017-11-19T21:14:41.920Z,100500
2017-11-19T21:19:48.176Z,100513
2017-11-19T21:22:18.087Z,100510
2017-11-19T21:24:48.021Z,100513
2017-11-19T21:27:17.955Z,100445
2017-11-19T21:29:47.911Z,100511
2017-11-19T21:32:18.147Z,100503
2017-11-19T21:34:48.055Z,100511
2017-11-19T21:37:18.227Z,100510
2017-11-19T21:39:48.126Z,100506
2017-11-19T21:42:18.314Z,100510
2017-11-19T21:44:48.306Z,100514
2017-11-19T21:47:18.215Z,100508
2017-11-19T21:49:48.106Z,100509
2017-11-19T21:52:18.265Z,100516
2017-11-19T21:54:48.163Z,100519
2017-11-19T21:57:18.369Z,100518
2017-11-19T21:59:48.295Z,100507
2017-11-19T22:02:18.228Z,100514
2017-11-19T22:04:48.148Z,100522
2017-11-19T22:07:18.088Z,100510
2017-11-19T22:09:48.051Z,100514
2017-11-19T22:12:18.008Z,100522
2017-11-19T22:14:47.925Z,100521
2017-11-19T22:17:18.141Z,100526
2017-11-19T22:19:48.053Z,100529
2017-11-19T22:22:18.204Z,100523
2017-11-19T22:24:48.081Z,100525
2017-11-19T22:27:18.254Z,100530
2017-11-19T22:29:48.136Z,100518
2017-11-19T22:32:18.318Z,100513
2017-11-19T22:34:48.232Z,100506
2017-11-19T22:37:18.185Z,100511
2017-11-19T22:39:48.073Z,100504
2017-11-19T22:42:18.272Z,100508
2017-11-19T22:44:48.156Z,100519
2017-11-19T22:47:18.342Z,100512
2017-11-19T22:49:48.257Z,100526
2017-11-19T22:52:18.452Z,100523
2017-11-19T22:54:48.348Z,100526
2017-11-19T22:57:18.519Z,100532
2017-11-19T22:59:48.405Z,100537
2017-11-19T23:02:18.282Z,100532
2017-11-19T23:04:48.159Z,100523
2017-11-19T23:07:18.339Z,100529
2017-11-19T23:09:48.224Z,100528
2017-11-19T23:12:18.431Z,100529
2017-11-19T23:14:48.310Z,100528
2017-11-19T23:17:18.514Z,100533
2017-11-19T23:19:48.373Z,100534
2017-11-19T23:22:18.521Z,100538
2017-11-19T23:24:48.397Z,100542
2017-11-19T23:27:18.552Z,100546
2017-11-19T23:29:48.439Z,100538
2017-11-19T23:32:18.605Z,100544
2017-11-19T23:34:48.494Z,100542
2017-11-19T23:37:18.391Z,100547
2017-11-19T23:39:48.660Z,100544
2017-11-19T23:42:18.635Z,100546
2017-11-19T23:44:48.549Z,100555
2017-11-19T23:47:19.172Z,100544
2017-11-19T23:49:49.049Z,100541
2017-11-19T23:52:19.333Z,100551
2017-11-19T23:54:49.171Z,100553
2017-11-19T23:57:19.333Z,100553
2017-11-19T23:59:49.229Z,100557
